Clervaux, Luxembourg

3:30 AM CET on February 28, 2015 (GMT +0100)
Doennange (LUX) | Change Station
CLOSE
Current Station
Personal Weather Station
Location: Doennange, CLERVAUX
Elevation: 1499 ft
Nearby Weather Stations

Elev 1499 ft 50.06 °N, 5.96 °E | Updated 37 seconds ago

Clear
Clear
24.4 °F
Feels Like 24 °F
N
0.7
Wind Variable Wind from SE
Gusts 1.6 mph

Today
High -- | Low -- °F
--% Chance of Precip.
Yesterday
High -- | Low -- °F
Precip. -- in
7:22 AM 6:15 PM
Waxing Gibbous, 73% visible
Pressure 30.09 in
Visibility -9999.0 miles
Clouds
Windchill 24 °F
Dew Point 22 °F
Humidity 89%
Rainfall 0.00 in
Snow Depth Not available.
UV Not available.
Pollen Not available.
Air Quality Not available.
Flu Activity Not available.
SPECI EBLB 280221Z AUTO VRB02KT 0650 NCD M05/M05 Q1019 RED

More Conditions Fewer Conditions

Pressure 30.09 in
Visibility -9999.0 miles
Clouds
Windchill 24 °F
Dew Point 22 °F
Humidity 89%
Rainfall 0.00 in
Snow Depth Not available.
UV Not available.
Pollen Not available.
Air Quality Not available.
Flu Activity Not available.
SPECI EBLB 280221Z AUTO VRB02KT 0650 NCD M05/M05 Q1019 RED

More Conditions Fewer Conditions

10-Day Weather Forecast

Almanac

Astronomy

Feb. 28, 2015 Rise Set
Actual Time
Civil Twilight
Nautical Twilight
Astronomical Twilight
Moon
Length of Visible Light
Length of Day
Tomorrow will be .
, % of the Moon is Illuminated

Today's Extremes

Country Highs Country Lows

Community

WunderPhotos

Upload Photos

1,800,938 photos uploaded!

WunderBlogs® & News

Nearby

Air Quality

  Air Quality AQ Index Pollutant
Not available.

Snow Depth

Station Depth Elevation

Earthquake Activity

City Distance Mag. Time & Date
Minimum magnitude displayed is 2.5.

Coastal Water Temperatures

Place Temperature

Nearby Weather Stations